sensor_id;sensor_type;location;lat;lon;timestamp;temperature;humidity
7720;DHT22;3902;49.474;8.616;2023-06-14T00:01:16;21.80;67.30
7720;DHT22;3902;49.474;8.616;2023-06-14T00:03:42;21.80;67.40
7720;DHT22;3902;49.474;8.616;2023-06-14T00:06:07;21.80;67.30
7720;DHT22;3902;49.474;8.616;2023-06-14T00:08:33;21.80;67.40
7720;DHT22;3902;49.474;8.616;2023-06-14T00:10:58;21.80;67.70
7720;DHT22;3902;49.474;8.616;2023-06-14T00:13:25;21.80;67.60
7720;DHT22;3902;49.474;8.616;2023-06-14T00:15:51;21.80;67.70
7720;DHT22;3902;49.474;8.616;2023-06-14T00:18:20;21.80;67.70
7720;DHT22;3902;49.474;8.616;2023-06-14T00:20:49;21.80;67.80
7720;DHT22;3902;49.474;8.616;2023-06-14T00:23:15;21.80;67.70
7720;DHT22;3902;49.474;8.616;2023-06-14T00:25:41;21.80;67.70
7720;DHT22;3902;49.474;8.616;2023-06-14T00:28:07;21.80;67.70
7720;DHT22;3902;49.474;8.616;2023-06-14T00:30:32;21.80;67.90
7720;DHT22;3902;49.474;8.616;2023-06-14T00:32:58;21.80;68.10
7720;DHT22;3902;49.474;8.616;2023-06-14T00:35:24;21.80;68.10
7720;DHT22;3902;49.474;8.616;2023-06-14T00:37:50;21.70;68.10
7720;DHT22;3902;49.474;8.616;2023-06-14T00:40:16;21.70;68.00
7720;DHT22;3902;49.474;8.616;2023-06-14T00:42:41;21.70;68.20
7720;DHT22;3902;49.474;8.616;2023-06-14T00:45:07;21.70;68.50
7720;DHT22;3902;49.474;8.616;2023-06-14T00:47:34;21.70;68.40
7720;DHT22;3902;49.474;8.616;2023-06-14T00:50:01;21.70;68.50
7720;DHT22;3902;49.474;8.616;2023-06-14T00:52:27;21.70;68.60
7720;DHT22;3902;49.474;8.616;2023-06-14T00:54:53;21.70;68.40
7720;DHT22;3902;49.474;8.616;2023-06-14T00:57:19;21.70;68.80
7720;DHT22;3902;49.474;8.616;2023-06-14T00:59:47;21.60;68.80
7720;DHT22;3902;49.474;8.616;2023-06-14T01:02:14;21.60;69.10
7720;DHT22;3902;49.474;8.616;2023-06-14T01:04:41;21.60;69.20
7720;DHT22;3902;49.474;8.616;2023-06-14T01:10:20;21.50;69.40
7720;DHT22;3902;49.474;8.616;2023-06-14T01:13:12;21.50;69.20
7720;DHT22;3902;49.474;8.616;2023-06-14T01:15:39;21.50;69.80
7720;DHT22;3902;49.474;8.616;2023-06-14T01:18:06;21.40;69.20
7720;DHT22;3902;49.474;8.616;2023-06-14T01:20:33;21.40;69.30
7720;DHT22;3902;49.474;8.616;2023-06-14T01:23:01;21.40;69.40
7720;DHT22;3902;49.474;8.616;2023-06-14T01:25:27;21.40;69.50
7720;DHT22;3902;49.474;8.616;2023-06-14T01:27:57;21.40;69.30
7720;DHT22;3902;49.474;8.616;2023-06-14T01:30:24;21.40;69.60
7720;DHT22;3902;49.474;8.616;2023-06-14T01:32:54;21.30;69.60
7720;DHT22;3902;49.474;8.616;2023-06-14T01:35:20;21.30;69.60
7720;DHT22;3902;49.474;8.616;2023-06-14T01:37:48;21.20;70.00
7720;DHT22;3902;49.474;8.616;2023-06-14T01:40:15;21.20;70.20
7720;DHT22;3902;49.474;8.616;2023-06-14T01:42:41;21.20;71.30
7720;DHT22;3902;49.474;8.616;2023-06-14T01:45:07;21.20;71.20
7720;DHT22;3902;49.474;8.616;2023-06-14T01:47:34;21.20;71.20
7720;DHT22;3902;49.474;8.616;2023-06-14T01:50:04;21.10;71.40
7720;DHT22;3902;49.474;8.616;2023-06-14T01:52:30;21.10;71.70
7720;DHT22;3902;49.474;8.616;2023-06-14T01:54:55;21.10;71.20
7720;DHT22;3902;49.474;8.616;2023-06-14T01:57:23;21.10;71.50
7720;DHT22;3902;49.474;8.616;2023-06-14T01:59:49;21.00;71.20
7720;DHT22;3902;49.474;8.616;2023-06-14T02:02:15;21.00;71.10
7720;DHT22;3902;49.474;8.616;2023-06-14T02:04:41;21.00;70.90
7720;DHT22;3902;49.474;8.616;2023-06-14T02:07:07;21.00;70.60
7720;DHT22;3902;49.474;8.616;2023-06-14T02:09:33;21.00;71.10
7720;DHT22;3902;49.474;8.616;2023-06-14T02:11:59;21.00;70.90
7720;DHT22;3902;49.474;8.616;2023-06-14T02:14:24;20.90;70.60
7720;DHT22;3902;49.474;8.616;2023-06-14T02:16:50;20.90;69.60
7720;DHT22;3902;49.474;8.616;2023-06-14T02:19:16;20.90;69.30
7720;DHT22;3902;49.474;8.616;2023-06-14T02:21:42;20.80;69.20
7720;DHT22;3902;49.474;8.616;2023-06-14T02:24:08;20.80;69.20
7720;DHT22;3902;49.474;8.616;2023-06-14T02:26:33;20.90;69.50
7720;DHT22;3902;49.474;8.616;2023-06-14T02:28:59;20.90;69.40
7720;DHT22;3902;49.474;8.616;2023-06-14T02:31:25;20.90;69.70
7720;DHT22;3902;49.474;8.616;2023-06-14T02:33:51;20.90;69.30
7720;DHT22;3902;49.474;8.616;2023-06-14T02:36:16;20.90;69.30
7720;DHT22;3902;49.474;8.616;2023-06-14T02:38:42;20.90;69.30
7720;DHT22;3902;49.474;8.616;2023-06-14T02:41:08;20.90;69.30
7720;DHT22;3902;49.474;8.616;2023-06-14T02:43:33;20.80;69.30
7720;DHT22;3902;49.474;8.616;2023-06-14T02:45:58;20.80;69.20
7720;DHT22;3902;49.474;8.616;2023-06-14T02:48:24;20.80;69.40
7720;DHT22;3902;49.474;8.616;2023-06-14T02:50:50;20.90;69.70
7720;DHT22;3902;49.474;8.616;2023-06-14T02:53:16;20.80;69.90
7720;DHT22;3902;49.474;8.616;2023-06-14T02:55:42;20.80;69.20
7720;DHT22;3902;49.474;8.616;2023-06-14T02:58:08;20.80;69.50
7720;DHT22;3902;49.474;8.616;2023-06-14T03:00:33;20.80;69.50
7720;DHT22;3902;49.474;8.616;2023-06-14T03:03:00;20.70;69.10
7720;DHT22;3902;49.474;8.616;2023-06-14T03:05:27;20.70;69.60
7720;DHT22;3902;49.474;8.616;2023-06-14T03:07:53;20.70;70.00
7720;DHT22;3902;49.474;8.616;2023-06-14T03:10:19;20.80;70.70
7720;DHT22;3902;49.474;8.616;2023-06-14T03:12:46;20.70;70.80
7720;DHT22;3902;49.474;8.616;2023-06-14T03:15:12;20.70;71.00
7720;DHT22;3902;49.474;8.616;2023-06-14T03:17:38;20.60;71.40
7720;DHT22;3902;49.474;8.616;2023-06-14T03:20:05;20.50;71.10
7720;DHT22;3902;49.474;8.616;2023-06-14T03:22:31;20.60;71.20
7720;DHT22;3902;49.474;8.616;2023-06-14T03:24:59;20.60;71.80
7720;DHT22;3902;49.474;8.616;2023-06-14T03:27:25;20.60;71.90
7720;DHT22;3902;49.474;8.616;2023-06-14T03:29:53;20.60;72.20
7720;DHT22;3902;49.474;8.616;2023-06-14T03:32:19;20.60;72.20
7720;DHT22;3902;49.474;8.616;2023-06-14T03:34:45;20.50;72.70
7720;DHT22;3902;49.474;8.616;2023-06-14T03:37:10;20.50;73.20
7720;DHT22;3902;49.474;8.616;2023-06-14T03:39:36;20.40;73.00
7720;DHT22;3902;49.474;8.616;2023-06-14T03:42:02;20.40;73.80
7720;DHT22;3902;49.474;8.616;2023-06-14T03:44:27;20.30;73.80
7720;DHT22;3902;49.474;8.616;2023-06-14T03:46:53;20.30;74.10
7720;DHT22;3902;49.474;8.616;2023-06-14T03:49:19;20.30;74.20
7720;DHT22;3902;49.474;8.616;2023-06-14T03:51:44;20.30;74.30
7720;DHT22;3902;49.474;8.616;2023-06-14T03:54:10;20.30;74.70
7720;DHT22;3902;49.474;8.616;2023-06-14T03:56:35;20.30;74.90
7720;DHT22;3902;49.474;8.616;2023-06-14T03:59:01;20.20;74.80
7720;DHT22;3902;49.474;8.616;2023-06-14T04:01:27;20.20;75.20
7720;DHT22;3902;49.474;8.616;2023-06-14T04:03:56;20.20;75.20
7720;DHT22;3902;49.474;8.616;2023-06-14T04:06:22;20.20;75.30
7720;DHT22;3902;49.474;8.616;2023-06-14T04:08:50;20.10;75.50
7720;DHT22;3902;49.474;8.616;2023-06-14T04:11:16;20.10;75.80
7720;DHT22;3902;49.474;8.616;2023-06-14T04:13:41;20.10;76.50
7720;DHT22;3902;49.474;8.616;2023-06-14T04:16:07;20.10;76.30
7720;DHT22;3902;49.474;8.616;2023-06-14T04:18:32;20.00;76.40
7720;DHT22;3902;49.474;8.616;2023-06-14T04:20:58;20.00;76.50
7720;DHT22;3902;49.474;8.616;2023-06-14T04:23:24;19.90;77.40
7720;DHT22;3902;49.474;8.616;2023-06-14T04:25:50;20.00;77.30
7720;DHT22;3902;49.474;8.616;2023-06-14T04:28:15;20.00;77.80
7720;DHT22;3902;49.474;8.616;2023-06-14T04:30:42;19.90;78.20
7720;DHT22;3902;49.474;8.616;2023-06-14T04:33:08;19.90;78.50
7720;DHT22;3902;49.474;8.616;2023-06-14T04:35:35;19.90;78.70
7720;DHT22;3902;49.474;8.616;2023-06-14T04:38:03;19.80;78.80
7720;DHT22;3902;49.474;8.616;2023-06-14T04:40:30;19.90;79.00
7720;DHT22;3902;49.474;8.616;2023-06-14T04:42:56;19.90;79.40
7720;DHT22;3902;49.474;8.616;2023-06-14T04:45:22;19.80;79.10
7720;DHT22;3902;49.474;8.616;2023-06-14T04:47:49;19.80;79.30
7720;DHT22;3902;49.474;8.616;2023-06-14T04:50:16;19.80;78.50
7720;DHT22;3902;49.474;8.616;2023-06-14T04:52:42;19.90;78.90
7720;DHT22;3902;49.474;8.616;2023-06-14T04:55:08;19.90;79.60
7720;DHT22;3902;49.474;8.616;2023-06-14T04:57:34;20.00;79.20
7720;DHT22;3902;49.474;8.616;2023-06-14T05:00:00;20.00;79.10
7720;DHT22;3902;49.474;8.616;2023-06-14T05:02:27;19.90;78.60
7720;DHT22;3902;49.474;8.616;2023-06-14T05:04:55;20.00;79.10
7720;DHT22;3902;49.474;8.616;2023-06-14T05:07:22;20.00;78.70
7720;DHT22;3902;49.474;8.616;2023-06-14T05:09:49;20.10;79.00
7720;DHT22;3902;49.474;8.616;2023-06-14T05:12:15;20.00;78.50
7720;DHT22;3902;49.474;8.616;2023-06-14T05:14:44;20.10;79.40
7720;DHT22;3902;49.474;8.616;2023-06-14T05:17:10;20.10;78.90
7720;DHT22;3902;49.474;8.616;2023-06-14T05:19:35;20.20;78.70
7720;DHT22;3902;49.474;8.616;2023-06-14T05:22:01;20.20;79.40
7720;DHT22;3902;49.474;8.616;2023-06-14T05:24:28;20.10;78.90
7720;DHT22;3902;49.474;8.616;2023-06-14T05:26:56;20.20;79.20
7720;DHT22;3902;49.474;8.616;2023-06-14T05:29:21;20.20;79.10
7720;DHT22;3902;49.474;8.616;2023-06-14T05:31:47;20.20;79.50
7720;DHT22;3902;49.474;8.616;2023-06-14T05:34:12;20.20;79.00
7720;DHT22;3902;49.474;8.616;2023-06-14T05:36:38;20.20;79.50
7720;DHT22;3902;49.474;8.616;2023-06-14T05:39:04;20.30;79.10
7720;DHT22;3902;49.474;8.616;2023-06-14T05:41:31;20.30;79.00
7720;DHT22;3902;49.474;8.616;2023-06-14T05:43:57;20.30;79.20
7720;DHT22;3902;49.474;8.616;2023-06-14T05:46:24;20.40;80.10
7720;DHT22;3902;49.474;8.616;2023-06-14T05:48:54;20.40;79.50
7720;DHT22;3902;49.474;8.616;2023-06-14T05:51:20;20.40;79.20
7720;DHT22;3902;49.474;8.616;2023-06-14T05:53:46;20.40;78.80
7720;DHT22;3902;49.474;8.616;2023-06-14T05:56:12;20.50;79.60
7720;DHT22;3902;49.474;8.616;2023-06-14T05:58:38;20.50;80.20
7720;DHT22;3902;49.474;8.616;2023-06-14T06:01:04;20.50;79.90
7720;DHT22;3902;49.474;8.616;2023-06-14T06:03:30;20.60;79.80
7720;DHT22;3902;49.474;8.616;2023-06-14T06:05:55;20.60;79.70
7720;DHT22;3902;49.474;8.616;2023-06-14T06:08:21;20.60;79.90
7720;DHT22;3902;49.474;8.616;2023-06-14T06:10:47;20.70;80.50
7720;DHT22;3902;49.474;8.616;2023-06-14T06:13:12;20.70;79.00
7720;DHT22;3902;49.474;8.616;2023-06-14T06:15:38;20.70;79.10
7720;DHT22;3902;49.474;8.616;2023-06-14T06:18:03;20.80;78.90
7720;DHT22;3902;49.474;8.616;2023-06-14T06:20:29;20.80;78.70
7720;DHT22;3902;49.474;8.616;2023-06-14T06:22:57;20.80;78.90
7720;DHT22;3902;49.474;8.616;2023-06-14T06:25:24;20.90;78.50
7720;DHT22;3902;49.474;8.616;2023-06-14T06:27:51;20.90;78.30
7720;DHT22;3902;49.474;8.616;2023-06-14T06:30:17;20.90;78.00
7720;DHT22;3902;49.474;8.616;2023-06-14T06:32:43;20.90;78.20
7720;DHT22;3902;49.474;8.616;2023-06-14T06:35:09;21.00;78.00
7720;DHT22;3902;49.474;8.616;2023-06-14T06:37:36;21.00;77.90
7720;DHT22;3902;49.474;8.616;2023-06-14T06:40:02;21.00;78.80
7720;DHT22;3902;49.474;8.616;2023-06-14T06:42:29;21.00;77.90
7720;DHT22;3902;49.474;8.616;2023-06-14T06:44:55;21.10;77.60
7720;DHT22;3902;49.474;8.616;2023-06-14T06:47:20;21.10;77.60
7720;DHT22;3902;49.474;8.616;2023-06-14T06:49:45;21.10;77.40
7720;DHT22;3902;49.474;8.616;2023-06-14T06:52:11;21.20;77.40
7720;DHT22;3902;49.474;8.616;2023-06-14T06:54:37;21.20;77.20
7720;DHT22;3902;49.474;8.616;2023-06-14T06:57:02;21.20;77.10
7720;DHT22;3902;49.474;8.616;2023-06-14T06:59:28;21.30;77.30
7720;DHT22;3902;49.474;8.616;2023-06-14T07:01:54;21.30;76.50
7720;DHT22;3902;49.474;8.616;2023-06-14T07:04:19;21.30;76.70
7720;DHT22;3902;49.474;8.616;2023-06-14T07:06:46;21.40;76.80
7720;DHT22;3902;49.474;8.616;2023-06-14T07:09:12;21.40;77.50
7720;DHT22;3902;49.474;8.616;2023-06-14T07:11:39;21.50;77.20
7720;DHT22;3902;49.474;8.616;2023-06-14T07:14:05;21.50;77.00
7720;DHT22;3902;49.474;8.616;2023-06-14T07:16:31;21.50;77.00
7720;DHT22;3902;49.474;8.616;2023-06-14T07:18:57;21.50;76.70
7720;DHT22;3902;49.474;8.616;2023-06-14T07:21:22;21.60;76.40
7720;DHT22;3902;49.474;8.616;2023-06-14T07:23:48;21.60;75.90
7720;DHT22;3902;49.474;8.616;2023-06-14T07:26:13;21.60;75.80
7720;DHT22;3902;49.474;8.616;2023-06-14T07:28:39;21.70;76.20
7720;DHT22;3902;49.474;8.616;2023-06-14T07:31:04;21.70;76.00
7720;DHT22;3902;49.474;8.616;2023-06-14T07:33:30;21.70;76.10
7720;DHT22;3902;49.474;8.616;2023-06-14T07:35:56;21.80;75.50
7720;DHT22;3902;49.474;8.616;2023-06-14T07:38:21;21.80;76.30
7720;DHT22;3902;49.474;8.616;2023-06-14T07:40:47;21.80;75.70
7720;DHT22;3902;49.474;8.616;2023-06-14T07:43:12;21.90;76.00
7720;DHT22;3902;49.474;8.616;2023-06-14T07:45:38;21.90;75.50
7720;DHT22;3902;49.474;8.616;2023-06-14T07:48:04;21.90;75.40
7720;DHT22;3902;49.474;8.616;2023-06-14T07:50:29;21.90;75.10
7720;DHT22;3902;49.474;8.616;2023-06-14T07:52:55;22.00;76.00
7720;DHT22;3902;49.474;8.616;2023-06-14T07:55:21;22.00;75.50
7720;DHT22;3902;49.474;8.616;2023-06-14T07:57:47;22.10;76.10
7720;DHT22;3902;49.474;8.616;2023-06-14T08:00:13;22.10;75.40
7720;DHT22;3902;49.474;8.616;2023-06-14T08:02:41;22.20;76.40
7720;DHT22;3902;49.474;8.616;2023-06-14T08:05:09;22.20;75.70
7720;DHT22;3902;49.474;8.616;2023-06-14T08:07:35;22.20;75.20
7720;DHT22;3902;49.474;8.616;2023-06-14T08:10:00;22.30;75.60
7720;DHT22;3902;49.474;8.616;2023-06-14T08:12:26;22.30;75.40
7720;DHT22;3902;49.474;8.616;2023-06-14T08:14:51;22.40;75.50
7720;DHT22;3902;49.474;8.616;2023-06-14T08:17:17;22.40;75.70
7720;DHT22;3902;49.474;8.616;2023-06-14T08:19:42;22.50;75.30
7720;DHT22;3902;49.474;8.616;2023-06-14T08:22:08;22.50;74.60
7720;DHT22;3902;49.474;8.616;2023-06-14T08:24:37;22.60;74.10
7720;DHT22;3902;49.474;8.616;2023-06-14T08:27:03;22.60;73.80
7720;DHT22;3902;49.474;8.616;2023-06-14T08:29:28;22.60;73.60
7720;DHT22;3902;49.474;8.616;2023-06-14T08:31:57;22.70;73.50
7720;DHT22;3902;49.474;8.616;2023-06-14T08:34:23;22.70;74.20
7720;DHT22;3902;49.474;8.616;2023-06-14T08:36:50;22.80;73.40
7720;DHT22;3902;49.474;8.616;2023-06-14T08:39:15;22.80;73.70
7720;DHT22;3902;49.474;8.616;2023-06-14T08:41:45;22.90;73.20
7720;DHT22;3902;49.474;8.616;2023-06-14T08:44:15;22.90;73.70
7720;DHT22;3902;49.474;8.616;2023-06-14T08:46:41;23.00;73.70
7720;DHT22;3902;49.474;8.616;2023-06-14T08:49:08;23.00;73.20
7720;DHT22;3902;49.474;8.616;2023-06-14T08:51:36;23.10;73.00
7720;DHT22;3902;49.474;8.616;2023-06-14T08:54:03;23.20;73.10
7720;DHT22;3902;49.474;8.616;2023-06-14T08:56:30;23.20;72.00
7720;DHT22;3902;49.474;8.616;2023-06-14T08:58:57;23.30;73.40
7720;DHT22;3902;49.474;8.616;2023-06-14T09:01:26;23.30;72.80
7720;DHT22;3902;49.474;8.616;2023-06-14T09:03:52;23.30;70.20
7720;DHT22;3902;49.474;8.616;2023-06-14T09:06:20;23.30;71.40
7720;DHT22;3902;49.474;8.616;2023-06-14T09:08:48;23.40;71.20
7720;DHT22;3902;49.474;8.616;2023-06-14T09:11:15;23.40;70.40
7720;DHT22;3902;49.474;8.616;2023-06-14T09:13:42;23.50;70.30
7720;DHT22;3902;49.474;8.616;2023-06-14T09:16:08;23.60;69.20
7720;DHT22;3902;49.474;8.616;2023-06-14T09:18:38;23.60;69.80
7720;DHT22;3902;49.474;8.616;2023-06-14T09:21:08;23.70;67.40
7720;DHT22;3902;49.474;8.616;2023-06-14T09:23:37;23.70;68.00
7720;DHT22;3902;49.474;8.616;2023-06-14T09:26:10;23.70;69.20
7720;DHT22;3902;49.474;8.616;2023-06-14T09:28:40;23.80;69.40
7720;DHT22;3902;49.474;8.616;2023-06-14T09:31:07;23.90;67.90
7720;DHT22;3902;49.474;8.616;2023-06-14T09:33:34;23.90;66.90
7720;DHT22;3902;49.474;8.616;2023-06-14T09:35:59;24.00;66.90
7720;DHT22;3902;49.474;8.616;2023-06-14T09:38:25;24.00;68.40
7720;DHT22;3902;49.474;8.616;2023-06-14T09:40:51;24.00;69.10
7720;DHT22;3902;49.474;8.616;2023-06-14T09:43:17;24.00;67.80
7720;DHT22;3902;49.474;8.616;2023-06-14T09:45:44;24.10;69.60
7720;DHT22;3902;49.474;8.616;2023-06-14T09:48:11;24.20;70.20
7720;DHT22;3902;49.474;8.616;2023-06-14T09:50:37;24.30;69.20
7720;DHT22;3902;49.474;8.616;2023-06-14T09:53:10;24.40;68.40
7720;DHT22;3902;49.474;8.616;2023-06-14T09:55:36;24.40;67.70
7720;DHT22;3902;49.474;8.616;2023-06-14T09:58:05;24.40;68.00
7720;DHT22;3902;49.474;8.616;2023-06-14T10:00:32;24.40;68.90
7720;DHT22;3902;49.474;8.616;2023-06-14T10:03:06;24.40;68.30
7720;DHT22;3902;49.474;8.616;2023-06-14T10:05:36;24.40;68.80
7720;DHT22;3902;49.474;8.616;2023-06-14T10:08:08;24.40;66.90
7720;DHT22;3902;49.474;8.616;2023-06-14T10:10:34;24.40;68.00
7720;DHT22;3902;49.474;8.616;2023-06-14T10:13:00;24.40;68.40
7720;DHT22;3902;49.474;8.616;2023-06-14T10:16:21;24.50;67.80
7720;DHT22;3902;49.474;8.616;2023-06-14T10:23:43;24.50;67.30
7720;DHT22;3902;49.474;8.616;2023-06-14T10:26:18;24.50;67.00
7720;DHT22;3902;49.474;8.616;2023-06-14T10:29:01;24.60;67.00
7720;DHT22;3902;49.474;8.616;2023-06-14T10:34:07;24.80;67.70
7720;DHT22;3902;49.474;8.616;2023-06-14T10:36:33;24.90;69.10
7720;DHT22;3902;49.474;8.616;2023-06-14T10:39:05;25.10;67.60
7720;DHT22;3902;49.474;8.616;2023-06-14T10:41:34;25.10;66.30
7720;DHT22;3902;49.474;8.616;2023-06-14T10:46:38;25.30;66.80
7720;DHT22;3902;49.474;8.616;2023-06-14T10:49:04;25.40;65.80
7720;DHT22;3902;49.474;8.616;2023-06-14T10:51:38;25.40;66.80
7720;DHT22;3902;49.474;8.616;2023-06-14T10:54:12;25.50;67.40
7720;DHT22;3902;49.474;8.616;2023-06-14T10:59:13;25.80;68.40
7720;DHT22;3902;49.474;8.616;2023-06-14T11:02:04;25.80;65.30
7720;DHT22;3902;49.474;8.616;2023-06-14T11:04:51;25.80;66.80
7720;DHT22;3902;49.474;8.616;2023-06-14T11:10:35;25.80;66.40
7720;DHT22;3902;49.474;8.616;2023-06-14T11:13:02;25.80;65.90
7720;DHT22;3902;49.474;8.616;2023-06-14T11:15:32;25.80;66.50
7720;DHT22;3902;49.474;8.616;2023-06-14T11:18:00;25.80;66.80
7720;DHT22;3902;49.474;8.616;2023-06-14T11:20:26;26.00;66.00
7720;DHT22;3902;49.474;8.616;2023-06-14T11:22:53;26.20;66.90
7720;DHT22;3902;49.474;8.616;2023-06-14T11:25:19;26.50;68.30
7720;DHT22;3902;49.474;8.616;2023-06-14T11:27:45;26.70;67.60
7720;DHT22;3902;49.474;8.616;2023-06-14T11:30:12;27.00;67.70
7720;DHT22;3902;49.474;8.616;2023-06-14T11:32:38;27.20;66.30
7720;DHT22;3902;49.474;8.616;2023-06-14T11:35:05;27.20;65.10
7720;DHT22;3902;49.474;8.616;2023-06-14T11:37:31;27.30;65.20
7720;DHT22;3902;49.474;8.616;2023-06-14T11:40:01;27.30;64.70
7720;DHT22;3902;49.474;8.616;2023-06-14T11:42:29;27.20;65.80
7720;DHT22;3902;49.474;8.616;2023-06-14T11:44:55;27.20;65.30
7720;DHT22;3902;49.474;8.616;2023-06-14T11:47:21;27.20;65.20
7720;DHT22;3902;49.474;8.616;2023-06-14T11:49:47;27.10;65.10
7720;DHT22;3902;49.474;8.616;2023-06-14T11:52:13;27.10;66.20
7720;DHT22;3902;49.474;8.616;2023-06-14T11:54:40;27.00;65.80
7720;DHT22;3902;49.474;8.616;2023-06-14T11:57:06;27.00;65.30
7720;DHT22;3902;49.474;8.616;2023-06-14T11:59:39;27.10;65.50
7720;DHT22;3902;49.474;8.616;2023-06-14T12:02:06;27.40;64.70
7720;DHT22;3902;49.474;8.616;2023-06-14T12:04:32;27.50;65.70
7720;DHT22;3902;49.474;8.616;2023-06-14T12:07:09;27.70;64.80
7720;DHT22;3902;49.474;8.616;2023-06-14T12:09:36;28.00;65.00
7720;DHT22;3902;49.474;8.616;2023-06-14T12:12:02;28.20;65.20
7720;DHT22;3902;49.474;8.616;2023-06-14T12:14:31;28.20;61.70
7720;DHT22;3902;49.474;8.616;2023-06-14T12:17:05;28.20;63.20
7720;DHT22;3902;49.474;8.616;2023-06-14T12:19:41;28.30;64.70
7720;DHT22;3902;49.474;8.616;2023-06-14T12:22:12;28.30;63.00
7720;DHT22;3902;49.474;8.616;2023-06-14T12:24:37;28.20;63.20
7720;DHT22;3902;49.474;8.616;2023-06-14T12:27:04;28.20;63.60
7720;DHT22;3902;49.474;8.616;2023-06-14T12:29:31;28.30;64.40
7720;DHT22;3902;49.474;8.616;2023-06-14T12:31:57;28.40;64.00
7720;DHT22;3902;49.474;8.616;2023-06-14T12:34:23;28.60;64.40
7720;DHT22;3902;49.474;8.616;2023-06-14T12:36:53;28.80;63.20
7720;DHT22;3902;49.474;8.616;2023-06-14T12:39:19;28.80;63.20
7720;DHT22;3902;49.474;8.616;2023-06-14T12:41:45;28.80;62.80
7720;DHT22;3902;49.474;8.616;2023-06-14T12:44:11;28.70;63.00
7720;DHT22;3902;49.474;8.616;2023-06-14T12:46:37;28.70;62.50
7720;DHT22;3902;49.474;8.616;2023-06-14T12:49:05;28.60;62.60
7720;DHT22;3902;49.474;8.616;2023-06-14T12:51:32;28.50;62.30
7720;DHT22;3902;49.474;8.616;2023-06-14T12:53:57;28.40;61.80
7720;DHT22;3902;49.474;8.616;2023-06-14T12:56:23;28.40;63.50
7720;DHT22;3902;49.474;8.616;2023-06-14T12:58:48;28.50;63.60
7720;DHT22;3902;49.474;8.616;2023-06-14T13:01:14;28.60;63.50
7720;DHT22;3902;49.474;8.616;2023-06-14T13:03:39;28.80;62.00
7720;DHT22;3902;49.474;8.616;2023-06-14T13:06:05;29.00;62.40
7720;DHT22;3902;49.474;8.616;2023-06-14T13:08:31;29.20;61.80
7720;DHT22;3902;49.474;8.616;2023-06-14T13:10:57;29.30;61.80
7720;DHT22;3902;49.474;8.616;2023-06-14T13:13:23;29.20;61.80
7720;DHT22;3902;49.474;8.616;2023-06-14T13:15:49;29.20;61.20
7720;DHT22;3902;49.474;8.616;2023-06-14T13:18:15;29.10;61.40
7720;DHT22;3902;49.474;8.616;2023-06-14T13:20:41;29.00;62.50
7720;DHT22;3902;49.474;8.616;2023-06-14T13:23:07;28.90;62.50
7720;DHT22;3902;49.474;8.616;2023-06-14T13:25:34;28.80;62.00
7720;DHT22;3902;49.474;8.616;2023-06-14T13:28:00;28.70;61.80
7720;DHT22;3902;49.474;8.616;2023-06-14T13:30:26;28.70;62.80
7720;DHT22;3902;49.474;8.616;2023-06-14T13:32:51;28.80;61.10
7720;DHT22;3902;49.474;8.616;2023-06-14T13:35:18;28.90;62.60
7720;DHT22;3902;49.474;8.616;2023-06-14T13:37:44;28.90;61.30
7720;DHT22;3902;49.474;8.616;2023-06-14T13:40:10;28.90;61.20
7720;DHT22;3902;49.474;8.616;2023-06-14T13:42:36;29.00;62.30
7720;DHT22;3902;49.474;8.616;2023-06-14T13:45:02;29.00;62.30
7720;DHT22;3902;49.474;8.616;2023-06-14T13:47:29;29.00;62.40
7720;DHT22;3902;49.474;8.616;2023-06-14T13:49:55;29.00;62.60
7720;DHT22;3902;49.474;8.616;2023-06-14T13:52:20;28.90;63.30
7720;DHT22;3902;49.474;8.616;2023-06-14T13:54:46;28.90;63.30
7720;DHT22;3902;49.474;8.616;2023-06-14T13:57:12;28.90;62.90
7720;DHT22;3902;49.474;8.616;2023-06-14T13:59:40;28.90;63.80
7720;DHT22;3902;49.474;8.616;2023-06-14T14:02:07;28.90;63.90
7720;DHT22;3902;49.474;8.616;2023-06-14T14:04:34;28.90;64.00
7720;DHT22;3902;49.474;8.616;2023-06-14T14:07:00;28.90;64.00
7720;DHT22;3902;49.474;8.616;2023-06-14T14:09:26;29.00;62.80
7720;DHT22;3902;49.474;8.616;2023-06-14T14:11:52;29.10;63.80
7720;DHT22;3902;49.474;8.616;2023-06-14T14:14:17;29.20;64.50
7720;DHT22;3902;49.474;8.616;2023-06-14T14:16:43;29.40;63.70
7720;DHT22;3902;49.474;8.616;2023-06-14T14:19:08;29.70;63.40
7720;DHT22;3902;49.474;8.616;2023-06-14T14:21:34;29.90;63.20
7720;DHT22;3902;49.474;8.616;2023-06-14T14:24:00;30.10;61.20
7720;DHT22;3902;49.474;8.616;2023-06-14T14:26:26;30.20;59.50
7720;DHT22;3902;49.474;8.616;2023-06-14T14:28:52;30.40;61.30
7720;DHT22;3902;49.474;8.616;2023-06-14T14:31:18;30.40;58.90
7720;DHT22;3902;49.474;8.616;2023-06-14T14:33:43;30.40;60.40
7720;DHT22;3902;49.474;8.616;2023-06-14T14:36:09;30.50;60.90
7720;DHT22;3902;49.474;8.616;2023-06-14T14:38:35;30.60;60.90
7720;DHT22;3902;49.474;8.616;2023-06-14T14:41:00;30.60;60.00
7720;DHT22;3902;49.474;8.616;2023-06-14T14:43:26;30.60;60.60
7720;DHT22;3902;49.474;8.616;2023-06-14T14:45:52;30.60;60.50
7720;DHT22;3902;49.474;8.616;2023-06-14T14:48:17;30.50;61.20
7720;DHT22;3902;49.474;8.616;2023-06-14T14:50:43;30.40;60.90
7720;DHT22;3902;49.474;8.616;2023-06-14T14:53:08;30.20;60.70
7720;DHT22;3902;49.474;8.616;2023-06-14T14:55:34;30.10;60.10
7720;DHT22;3902;49.474;8.616;2023-06-14T14:58:02;29.90;60.90
7720;DHT22;3902;49.474;8.616;2023-06-14T15:00:28;29.80;61.80
7720;DHT22;3902;49.474;8.616;2023-06-14T15:02:54;29.80;60.30
7720;DHT22;3902;49.474;8.616;2023-06-14T15:05:19;29.80;61.80
7720;DHT22;3902;49.474;8.616;2023-06-14T15:07:45;29.80;61.00
7720;DHT22;3902;49.474;8.616;2023-06-14T15:10:11;29.70;59.30
7720;DHT22;3902;49.474;8.616;2023-06-14T15:12:37;29.80;61.20
7720;DHT22;3902;49.474;8.616;2023-06-14T15:15:03;29.90;61.20
7720;DHT22;3902;49.474;8.616;2023-06-14T15:17:28;29.80;61.50
7720;DHT22;3902;49.474;8.616;2023-06-14T15:19:54;29.70;61.70
7720;DHT22;3902;49.474;8.616;2023-06-14T15:22:20;29.60;59.90
7720;DHT22;3902;49.474;8.616;2023-06-14T15:24:45;29.70;60.80
7720;DHT22;3902;49.474;8.616;2023-06-14T15:27:12;29.70;61.40
7720;DHT22;3902;49.474;8.616;2023-06-14T15:29:38;29.70;61.50
7720;DHT22;3902;49.474;8.616;2023-06-14T15:32:05;29.60;60.90
7720;DHT22;3902;49.474;8.616;2023-06-14T15:34:31;29.50;60.40
7720;DHT22;3902;49.474;8.616;2023-06-14T15:36:56;29.40;60.40
7720;DHT22;3902;49.474;8.616;2023-06-14T15:39:22;29.30;60.10
7720;DHT22;3902;49.474;8.616;2023-06-14T15:41:49;29.20;59.40
7720;DHT22;3902;49.474;8.616;2023-06-14T15:44:16;29.00;60.50
7720;DHT22;3902;49.474;8.616;2023-06-14T15:46:42;28.90;60.20
7720;DHT22;3902;49.474;8.616;2023-06-14T15:49:12;28.90;61.40
7720;DHT22;3902;49.474;8.616;2023-06-14T15:51:38;28.90;60.70
7720;DHT22;3902;49.474;8.616;2023-06-14T15:54:04;29.00;61.40
7720;DHT22;3902;49.474;8.616;2023-06-14T15:56:30;29.00;61.40
7720;DHT22;3902;49.474;8.616;2023-06-14T15:58:56;29.00;60.10
7720;DHT22;3902;49.474;8.616;2023-06-14T16:01:22;29.00;60.80
7720;DHT22;3902;49.474;8.616;2023-06-14T16:03:48;29.00;60.40
7720;DHT22;3902;49.474;8.616;2023-06-14T16:06:14;29.00;60.80
7720;DHT22;3902;49.474;8.616;2023-06-14T16:08:39;29.00;60.90
7720;DHT22;3902;49.474;8.616;2023-06-14T16:11:05;29.00;60.20
7720;DHT22;3902;49.474;8.616;2023-06-14T16:13:30;28.90;60.60
7720;DHT22;3902;49.474;8.616;2023-06-14T16:15:56;28.90;61.30
7720;DHT22;3902;49.474;8.616;2023-06-14T16:18:22;28.90;61.10